sensor_id;sensor_type;location;lat;lon;timestamp;pressure;altitude;pressure_sealevel;temperature;humidity
54262;BME280;40174;52.364;6.452;2023-05-10T00:01:27;100566.03;;;12.85;100.00
54262;BME280;40174;52.364;6.452;2023-05-10T00:03:55;100564.50;;;12.83;100.00
54262;BME280;40174;52.364;6.452;2023-05-10T00:06:22;100571.22;;;12.87;100.00
54262;BME280;40174;52.364;6.452;2023-05-10T00:08:48;100569.13;;;12.81;100.00
54262;BME280;40174;52.364;6.452;2023-05-10T00:11:15;100567.16;;;12.73;100.00
54262;BME280;40174;52.364;6.452;2023-05-10T00:13:42;100567.44;;;12.80;100.00
54262;BME280;40174;52.364;6.452;2023-05-10T00:16:08;100567.44;;;12.80;100.00
54262;BME280;40174;52.364;6.452;2023-05-10T00:18:35;100565.34;;;12.83;100.00
54262;BME280;40174;52.364;6.452;2023-05-10T00:21:03;100566.16;;;12.84;100.00
54262;BME280;40174;52.364;6.452;2023-05-10T00:23:30;100566.09;;;12.76;100.00
54262;BME280;40174;52.364;6.452;2023-05-10T00:25:57;100559.22;;;12.73;100.00
54262;BME280;40174;52.364;6.452;2023-05-10T00:28:24;100568.03;;;12.74;100.00
54262;BME280;40174;52.364;6.452;2023-05-10T00:30:50;100563.44;;;12.76;100.00
54262;BME280;40174;52.364;6.452;2023-05-10T00:33:17;100565.78;;;12.79;100.00
54262;BME280;40174;52.364;6.452;2023-05-10T00:35:43;100562.00;;;12.81;100.00
54262;BME280;40174;52.364;6.452;2023-05-10T00:38:11;100554.59;;;12.75;100.00
54262;BME280;40174;52.364;6.452;2023-05-10T00:40:38;100556.72;;;12.72;100.00
54262;BME280;40174;52.364;6.452;2023-05-10T00:43:11;100556.72;;;12.72;100.00
54262;BME280;40174;52.364;6.452;2023-05-10T00:45:40;100563.13;;;12.79;100.00
54262;BME280;40174;52.364;6.452;2023-05-10T00:48:06;100560.09;;;12.64;100.00
54262;BME280;40174;52.364;6.452;2023-05-10T00:50:33;100555.78;;;12.63;100.00
54262;BME280;40174;52.364;6.452;2023-05-10T00:53:01;100552.94;;;12.74;100.00
54262;BME280;40174;52.364;6.452;2023-05-10T00:55:30;100554.34;;;12.68;100.00
54262;BME280;40174;52.364;6.452;2023-05-10T00:57:57;100547.13;;;12.61;100.00
54262;BME280;40174;52.364;6.452;2023-05-10T01:00:24;100556.72;;;12.62;100.00
54262;BME280;40174;52.364;6.452;2023-05-10T01:02:52;100554.09;;;12.62;100.00
54262;BME280;40174;52.364;6.452;2023-05-10T01:05:19;100547.53;;;12.66;100.00
54262;BME280;40174;52.364;6.452;2023-05-10T01:07:46;100551.88;;;12.57;100.00
54262;BME280;40174;52.364;6.452;2023-05-10T01:10:13;100552.13;;;12.64;100.00
54262;BME280;40174;52.364;6.452;2023-05-10T01:12:43;100558.56;;;12.61;100.00
54262;BME280;40174;52.364;6.452;2023-05-10T01:15:12;100547.94;;;12.61;100.00
54262;BME280;40174;52.364;6.452;2023-05-10T01:17:42;100548.94;;;12.51;100.00
54262;BME280;40174;52.364;6.452;2023-05-10T01:20:10;100548.50;;;12.55;100.00
54262;BME280;40174;52.364;6.452;2023-05-10T01:23:05;100549.81;;;12.51;100.00
54262;BME280;40174;52.364;6.452;2023-05-10T01:25:48;100549.09;;;12.49;100.00
54262;BME280;40174;52.364;6.452;2023-05-10T01:28:42;100549.78;;;12.61;100.00
54262;BME280;40174;52.364;6.452;2023-05-10T01:31:22;100548.38;;;12.57;100.00
54262;BME280;40174;52.364;6.452;2023-05-10T01:34:01;100548.38;;;12.57;100.00
54262;BME280;40174;52.364;6.452;2023-05-10T01:36:31;100552.28;;;12.53;100.00
54262;BME280;40174;52.364;6.452;2023-05-10T01:39:05;100551.91;;;12.47;100.00
54262;BME280;40174;52.364;6.452;2023-05-10T01:41:36;100551.75;;;12.49;100.00
54262;BME280;40174;52.364;6.452;2023-05-10T01:44:13;100554.28;;;12.41;100.00
54262;BME280;40174;52.364;6.452;2023-05-10T01:46:42;100552.31;;;12.43;100.00
54262;BME280;40174;52.364;6.452;2023-05-10T01:49:15;100564.59;;;12.44;100.00
54262;BME280;40174;52.364;6.452;2023-05-10T01:51:50;100553.16;;;12.43;100.00
54262;BME280;40174;52.364;6.452;2023-05-10T01:54:20;100551.06;;;12.47;100.00
54262;BME280;40174;52.364;6.452;2023-05-10T01:56:52;100553.28;;;12.42;100.00
54262;BME280;40174;52.364;6.452;2023-05-10T01:59:22;100553.16;;;12.43;100.00
54262;BME280;40174;52.364;6.452;2023-05-10T02:01:51;100555.66;;;12.45;100.00
54262;BME280;40174;52.364;6.452;2023-05-10T02:04:21;100549.38;;;12.46;100.00
54262;BME280;40174;52.364;6.452;2023-05-10T02:06:51;100541.16;;;12.49;100.00
54262;BME280;40174;52.364;6.452;2023-05-10T02:09:20;100548.25;;;12.48;100.00
54262;BME280;40174;52.364;6.452;2023-05-10T02:11:48;100541.59;;;12.44;100.00
54262;BME280;40174;52.364;6.452;2023-05-10T02:14:15;100545.19;;;12.43;100.00
54262;BME280;40174;52.364;6.452;2023-05-10T02:16:44;100549.66;;;12.43;100.00
54262;BME280;40174;52.364;6.452;2023-05-10T02:19:13;100564.44;;;12.45;100.00
54262;BME280;40174;52.364;6.452;2023-05-10T02:21:42;100561.22;;;12.42;100.00
54262;BME280;40174;52.364;6.452;2023-05-10T02:24:11;100565.72;;;12.41;100.00
54262;BME280;40174;52.364;6.452;2023-05-10T02:26:38;100576.88;;;12.45;100.00
54262;BME280;40174;52.364;6.452;2023-05-10T02:29:06;100577.28;;;12.40;100.00
54262;BME280;40174;52.364;6.452;2023-05-10T02:31:34;100569.47;;;12.39;100.00
54262;BME280;40174;52.364;6.452;2023-05-10T02:34:05;100572.97;;;12.39;100.00
54262;BME280;40174;52.364;6.452;2023-05-10T02:36:32;100562.78;;;12.35;100.00
54262;BME280;40174;52.364;6.452;2023-05-10T02:39:01;100577.13;;;12.42;100.00
54262;BME280;40174;52.364;6.452;2023-05-10T02:41:30;100573.81;;;12.40;100.00
54262;BME280;40174;52.364;6.452;2023-05-10T02:43:59;100565.00;;;12.49;100.00
54262;BME280;40174;52.364;6.452;2023-05-10T02:46:28;100565.44;;;12.44;100.00
54262;BME280;40174;52.364;6.452;2023-05-10T02:48:55;100578.97;;;12.41;100.00
54262;BME280;40174;52.364;6.452;2023-05-10T02:51:24;100574.47;;;12.42;100.00
54262;BME280;40174;52.364;6.452;2023-05-10T02:53:53;100583.13;;;12.44;100.00
54262;BME280;40174;52.364;6.452;2023-05-10T02:56:25;100572.41;;;12.36;100.00
54262;BME280;40174;52.364;6.452;2023-05-10T02:58:55;100570.91;;;12.33;100.00
54262;BME280;40174;52.364;6.452;2023-05-10T03:01:21;100572.41;;;12.36;100.00
54262;BME280;40174;52.364;6.452;2023-05-10T03:03:48;100563.34;;;12.38;100.00
54262;BME280;40174;52.364;6.452;2023-05-10T03:06:15;100564.88;;;12.41;100.00
54262;BME280;40174;52.364;6.452;2023-05-10T03:08:42;100571.28;;;12.38;100.00
54262;BME280;40174;52.364;6.452;2023-05-10T03:11:28;100569.19;;;12.42;100.00
54262;BME280;40174;52.364;6.452;2023-05-10T03:14:10;100568.53;;;12.40;100.00
54262;BME280;40174;52.364;6.452;2023-05-10T03:16:43;100571.84;;;12.32;100.00
54262;BME280;40174;52.364;6.452;2023-05-10T03:19:16;100574.63;;;12.31;100.00
54262;BME280;40174;52.364;6.452;2023-05-10T03:21:49;100566.16;;;12.27;100.00
54262;BME280;40174;52.364;6.452;2023-05-10T03:24:18;100567.94;;;12.36;100.00
54262;BME280;40174;52.364;6.452;2023-05-10T03:26:49;100575.50;;;12.31;100.00
54262;BME280;40174;52.364;6.452;2023-05-10T03:29:17;100571.28;;;12.28;100.00
54262;BME280;40174;52.364;6.452;2023-05-10T03:31:45;100579.81;;;12.32;100.00
54262;BME280;40174;52.364;6.452;2023-05-10T03:34:13;100586.78;;;12.33;100.00
54262;BME280;40174;52.364;6.452;2023-05-10T03:36:40;100587.75;;;12.32;100.00
54262;BME280;40174;52.364;6.452;2023-05-10T03:39:07;100597.41;;;12.33;100.00
54262;BME280;40174;52.364;6.452;2023-05-10T03:41:34;100588.31;;;12.36;100.00
54262;BME280;40174;52.364;6.452;2023-05-10T03:44:02;100587.63;;;12.34;100.00
54262;BME280;40174;52.364;6.452;2023-05-10T03:46:29;100591.09;;;12.34;100.00
54262;BME280;40174;52.364;6.452;2023-05-10T03:48:55;100593.19;;;12.40;100.00
54262;BME280;40174;52.364;6.452;2023-05-10T03:51:23;100592.22;;;12.41;100.00
54262;BME280;40174;52.364;6.452;2023-05-10T03:53:53;100584.69;;;12.37;100.00
54262;BME280;40174;52.364;6.452;2023-05-10T03:56:20;100594.59;;;12.35;100.00
54262;BME280;40174;52.364;6.452;2023-05-10T03:58:47;100602.41;;;12.36;100.00
54262;BME280;40174;52.364;6.452;2023-05-10T04:01:15;100594.31;;;12.38;100.00
54262;BME280;40174;52.364;6.452;2023-05-10T04:03:41;100599.47;;;12.39;100.00
54262;BME280;40174;52.364;6.452;2023-05-10T04:06:08;100593.59;;;12.45;100.00
54262;BME280;40174;52.364;6.452;2023-05-10T04:08:37;100599.19;;;12.42;100.00
54262;BME280;40174;52.364;6.452;2023-05-10T04:11:07;100604.50;;;12.42;100.00
54262;BME280;40174;52.364;6.452;2023-05-10T04:13:34;100604.50;;;12.42;100.00
54262;BME280;40174;52.364;6.452;2023-05-10T04:16:01;100607.84;;;12.44;100.00
54262;BME280;40174;52.364;6.452;2023-05-10T04:18:29;100602.38;;;12.46;100.00
54262;BME280;40174;52.364;6.452;2023-05-10T04:20:56;100604.91;;;12.47;100.00
54262;BME280;40174;52.364;6.452;2023-05-10T04:23:22;100599.72;;;12.46;100.00
54262;BME280;40174;52.364;6.452;2023-05-10T04:25:49;100595.97;;;12.48;100.00
54262;BME280;40174;52.364;6.452;2023-05-10T04:28:15;100599.72;;;12.46;100.00
54262;BME280;40174;52.364;6.452;2023-05-10T04:30:42;100604.34;;;12.44;100.00
54262;BME280;40174;52.364;6.452;2023-05-10T04:33:08;100606.44;;;12.50;100.00
54262;BME280;40174;52.364;6.452;2023-05-10T04:35:36;100605.19;;;12.44;100.00
54262;BME280;40174;52.364;6.452;2023-05-10T04:38:05;100608.38;;;12.48;100.00
54262;BME280;40174;52.364;6.452;2023-05-10T04:40:32;100614.53;;;12.48;100.00
54262;BME280;40174;52.364;6.452;2023-05-10T04:42:59;100617.16;;;12.48;100.00
54262;BME280;40174;52.364;6.452;2023-05-10T04:45:26;100619.13;;;12.46;100.00
54262;BME280;40174;52.364;6.452;2023-05-10T04:47:52;100614.69;;;12.47;100.00
54262;BME280;40174;52.364;6.452;2023-05-10T04:50:19;100622.47;;;12.48;100.00
54262;BME280;40174;52.364;6.452;2023-05-10T04:52:47;100632.25;;;12.58;100.00
54262;BME280;40174;52.364;6.452;2023-05-10T04:55:13;100623.44;;;12.57;100.00
54262;BME280;40174;52.364;6.452;2023-05-10T04:57:40;100630.28;;;12.60;100.00
54262;BME280;40174;52.364;6.452;2023-05-10T05:00:07;100631.41;;;12.57;100.00
54262;BME280;40174;52.364;6.452;2023-05-10T05:02:34;100629.59;;;12.58;100.00
54262;BME280;40174;52.364;6.452;2023-05-10T05:05:00;100631.28;;;12.49;100.00
54262;BME280;40174;52.364;6.452;2023-05-10T05:07:27;100636.00;;;12.55;100.00
54262;BME280;40174;52.364;6.452;2023-05-10T05:09:57;100641.16;;;12.57;100.00
54262;BME280;40174;52.364;6.452;2023-05-10T05:12:23;100638.81;;;12.54;100.00
54262;BME280;40174;52.364;6.452;2023-05-10T05:14:50;100639.34;;;12.57;100.00
54262;BME280;40174;52.364;6.452;2023-05-10T05:17:17;100651.22;;;12.63;100.00
54262;BME280;40174;52.364;6.452;2023-05-10T05:19:43;100650.81;;;12.58;100.00
54262;BME280;40174;52.364;6.452;2023-05-10T05:22:10;100650.66;;;12.59;100.00
54262;BME280;40174;52.364;6.452;2023-05-10T05:24:37;100654.69;;;12.63;100.00
54262;BME280;40174;52.364;6.452;2023-05-10T05:27:05;100649.69;;;12.60;100.00
54262;BME280;40174;52.364;6.452;2023-05-10T05:29:32;100643.41;;;12.61;100.00
54262;BME280;40174;52.364;6.452;2023-05-10T05:31:59;100639.91;;;12.61;100.00
54262;BME280;40174;52.364;6.452;2023-05-10T05:34:26;100647.16;;;12.68;100.00
54262;BME280;40174;52.364;6.452;2023-05-10T05:36:53;100653.88;;;12.63;100.00
54262;BME280;40174;52.364;6.452;2023-05-10T05:39:19;100658.19;;;12.64;100.00
54262;BME280;40174;52.364;6.452;2023-05-10T05:41:46;100660.13;;;12.62;100.00
54262;BME280;40174;52.364;6.452;2023-05-10T05:44:14;100656.38;;;12.64;100.00
54262;BME280;40174;52.364;6.452;2023-05-10T05:46:40;100658.47;;;12.61;100.00
54262;BME280;40174;52.364;6.452;2023-05-10T05:49:07;100661.66;;;12.64;100.00
54262;BME280;40174;52.364;6.452;2023-05-10T05:51:33;100661.66;;;12.64;100.00
54262;BME280;40174;52.364;6.452;2023-05-10T05:54:00;100672.44;;;12.63;100.00
54262;BME280;40174;52.364;6.452;2023-05-10T05:56:29;100667.97;;;12.63;100.00
54262;BME280;40174;52.364;6.452;2023-05-10T05:58:56;100672.97;;;12.66;100.00
54262;BME280;40174;52.364;6.452;2023-05-10T06:01:23;100668.38;;;12.68;100.00
54262;BME280;40174;52.364;6.452;2023-05-10T06:03:50;100671.19;;;12.67;100.00
54262;BME280;40174;52.364;6.452;2023-05-10T06:06:17;100677.47;;;12.76;100.00
54262;BME280;40174;52.364;6.452;2023-05-10T06:08:43;100678.84;;;12.70;100.00
54262;BME280;40174;52.364;6.452;2023-05-10T06:11:10;100684.97;;;12.71;100.00
54262;BME280;40174;52.364;6.452;2023-05-10T06:13:36;100685.53;;;12.74;100.00
54262;BME280;40174;52.364;6.452;2023-05-10T06:16:03;100679.38;;;12.83;100.00
54262;BME280;40174;52.364;6.452;2023-05-10T06:18:31;100682.34;;;12.80;100.00
54262;BME280;40174;52.364;6.452;2023-05-10T06:20:58;100678.56;;;12.83;100.00
54262;BME280;40174;52.364;6.452;2023-05-10T06:23:25;100679.25;;;12.85;100.00
54262;BME280;40174;52.364;6.452;2023-05-10T06:25:51;100677.28;;;12.97;100.00
54262;BME280;40174;52.364;6.452;2023-05-10T06:28:18;100684.94;;;13.00;100.00
54262;BME280;40174;52.364;6.452;2023-05-10T06:30:45;100678.94;;;12.98;100.00
54262;BME280;40174;52.364;6.452;2023-05-10T06:33:11;100680.19;;;13.03;100.00
54262;BME280;40174;52.364;6.452;2023-05-10T06:35:39;100681.16;;;13.02;100.00
54262;BME280;40174;52.364;6.452;2023-05-10T06:38:06;100693.03;;;13.08;100.00
54262;BME280;40174;52.364;6.452;2023-05-10T06:40:32;100688.84;;;13.05;100.00
54262;BME280;40174;52.364;6.452;2023-05-10T06:42:59;100683.66;;;13.14;100.00
54262;BME280;40174;52.364;6.452;2023-05-10T06:45:26;100684.94;;;13.09;100.00
54262;BME280;40174;52.364;6.452;2023-05-10T06:47:52;100695.56;;;13.09;100.00
54262;BME280;40174;52.364;6.452;2023-05-10T06:50:19;100701.41;;;13.13;100.00
54262;BME280;40174;52.364;6.452;2023-05-10T06:52:47;100697.44;;;13.27;100.00
54262;BME280;40174;52.364;6.452;2023-05-10T06:55:13;100704.31;;;13.29;100.00
54262;BME280;40174;52.364;6.452;2023-05-10T06:57:40;100711.59;;;13.27;100.00
54262;BME280;40174;52.364;6.452;2023-05-10T07:00:07;100711.72;;;13.26;100.00
54262;BME280;40174;52.364;6.452;2023-05-10T07:02:34;100714.09;;;13.29;100.00
54262;BME280;40174;52.364;6.452;2023-05-10T07:05:01;100715.75;;;13.40;100.00
54262;BME280;40174;52.364;6.452;2023-05-10T07:07:28;100707.94;;;13.38;100.00
54262;BME280;40174;52.364;6.452;2023-05-10T07:09:56;100722.88;;;13.39;100.00
54262;BME280;40174;52.364;6.452;2023-05-10T07:12:22;100712.28;;;13.29;100.00
54262;BME280;40174;52.364;6.452;2023-05-10T07:14:49;100712.84;;;13.33;100.00
54262;BME280;40174;52.364;6.452;2023-05-10T07:17:16;100719.69;;;13.26;100.00
54262;BME280;40174;52.364;6.452;2023-05-10T07:19:42;100719.13;;;13.22;100.00
54262;BME280;40174;52.364;6.452;2023-05-10T07:22:09;100727.63;;;13.26;100.00
54262;BME280;40174;52.364;6.452;2023-05-10T07:24:36;100728.91;;;13.22;100.00
54262;BME280;40174;52.364;6.452;2023-05-10T07:27:04;100735.59;;;13.26;100.00
54262;BME280;40174;52.364;6.452;2023-05-10T07:29:31;100736.72;;;13.23;100.00
54262;BME280;40174;52.364;6.452;2023-05-10T07:31:57;100741.59;;;13.18;100.00
54262;BME280;40174;52.364;6.452;2023-05-10T07:34:24;100742.59;;;13.17;100.00
54262;BME280;40174;52.364;6.452;2023-05-10T07:36:51;100754.88;;;13.18;100.00
54262;BME280;40174;52.364;6.452;2023-05-10T07:39:17;100751.53;;;13.26;100.00
54262;BME280;40174;52.364;6.452;2023-05-10T07:41:45;100751.53;;;13.26;100.00
54262;BME280;40174;52.364;6.452;2023-05-10T07:44:13;100758.53;;;13.37;100.00
54262;BME280;40174;52.364;6.452;2023-05-10T07:46:40;100753.19;;;13.27;100.00
54262;BME280;40174;52.364;6.452;2023-05-10T07:49:07;100757.56;;;13.28;100.00
54262;BME280;40174;52.364;6.452;2023-05-10T07:51:33;100754.19;;;13.26;100.00
54262;BME280;40174;52.364;6.452;2023-05-10T07:54:00;100757.78;;;13.25;100.00
54262;BME280;40174;52.364;6.452;2023-05-10T07:56:29;100762.56;;;13.21;100.00
54262;BME280;40174;52.364;6.452;2023-05-10T07:58:57;100770.13;;;13.16;100.00
54262;BME280;40174;52.364;6.452;2023-05-10T08:01:26;100771.78;;;13.17;100.00
54262;BME280;40174;52.364;6.452;2023-05-10T08:03:52;100763.00;;;13.17;100.00
54262;BME280;40174;52.364;6.452;2023-05-10T08:06:20;100766.91;;;13.13;100.00
54262;BME280;40174;52.364;6.452;2023-05-10T08:08:47;100766.34;;;13.09;100.00
54262;BME280;40174;52.364;6.452;2023-05-10T08:11:15;100787.03;;;13.05;100.00
54262;BME280;40174;52.364;6.452;2023-05-10T08:13:42;100785.34;;;13.04;100.00
54262;BME280;40174;52.364;6.452;2023-05-10T08:16:08;100775.69;;;13.13;100.00
54262;BME280;40174;52.364;6.452;2023-05-10T08:18:36;100776.53;;;13.14;100.00
54262;BME280;40174;52.364;6.452;2023-05-10T08:21:03;100788.41;;;13.19;100.00
54262;BME280;40174;52.364;6.452;2023-05-10T08:23:29;100792.31;;;13.15;100.00
54262;BME280;40174;52.364;6.452;2023-05-10T08:25:56;100785.06;;;13.17;100.00
54262;BME280;40174;52.364;6.452;2023-05-10T08:28:23;100787.31;;;13.12;100.00
54262;BME280;40174;52.364;6.452;2023-05-10T08:30:50;100792.19;;;13.17;100.00
54262;BME280;40174;52.364;6.452;2023-05-10T08:33:17;100795.94;;;13.24;100.00
54262;BME280;40174;52.364;6.452;2023-05-10T08:35:45;100795.94;;;13.24;100.00
54262;BME280;40174;52.364;6.452;2023-05-10T08:38:12;100797.38;;;13.28;100.00
54262;BME280;40174;52.364;6.452;2023-05-10T08:40:41;100794.44;;;13.31;100.00
54262;BME280;40174;52.364;6.452;2023-05-10T08:43:09;100794.13;;;13.24;100.00
54262;BME280;40174;52.364;6.452;2023-05-10T08:45:38;100801.53;;;13.40;100.00
54262;BME280;40174;52.364;6.452;2023-05-10T08:48:05;100801.84;;;13.37;100.00
54262;BME280;40174;52.364;6.452;2023-05-10T08:50:35;100802.41;;;13.41;100.00
54262;BME280;40174;52.364;6.452;2023-05-10T08:53:05;100803.75;;;13.45;100.00
54262;BME280;40174;52.364;6.452;2023-05-10T08:55:32;100806.00;;;13.49;100.00
54262;BME280;40174;52.364;6.452;2023-05-10T08:57:59;100805.72;;;13.43;100.00
54262;BME280;40174;52.364;6.452;2023-05-10T09:00:26;100807.81;;;13.59;100.00
54262;BME280;40174;52.364;6.452;2023-05-10T09:02:54;100824.84;;;13.66;100.00
54262;BME280;40174;52.364;6.452;2023-05-10T09:05:21;100822.84;;;13.78;100.00
54262;BME280;40174;52.364;6.452;2023-05-10T09:07:47;100818.94;;;13.82;100.00
54262;BME280;40174;52.364;6.452;2023-05-10T09:10:15;100828.81;;;13.89;100.00
54262;BME280;40174;52.364;6.452;2023-05-10T09:12:43;100828.38;;;13.94;100.00
54262;BME280;40174;52.364;6.452;2023-05-10T09:15:10;100829.25;;;13.85;100.00
54262;BME280;40174;52.364;6.452;2023-05-10T09:17:38;100831.72;;;13.96;100.00
54262;BME280;40174;52.364;6.452;2023-05-10T09:20:07;100833.50;;;14.05;100.00
54262;BME280;40174;52.364;6.452;2023-05-10T09:22:34;100835.47;;;14.13;100.00
54262;BME280;40174;52.364;6.452;2023-05-10T09:25:08;100828.00;;;14.17;100.00
54262;BME280;40174;52.364;6.452;2023-05-10T09:27:38;100840.47;;;14.16;100.00
54262;BME280;40174;52.364;6.452;2023-05-10T09:30:06;100837.19;;;14.32;100.00
54262;BME280;40174;52.364;6.452;2023-05-10T09:32:38;100835.22;;;14.34;100.00
54262;BME280;40174;52.364;6.452;2023-05-10T09:35:09;100844.56;;;14.38;100.00
54262;BME280;40174;52.364;6.452;2023-05-10T09:37:35;100844.13;;;14.43;100.00
54262;BME280;40174;52.364;6.452;2023-05-10T09:40:04;100851.28;;;14.42;100.00
54262;BME280;40174;52.364;6.452;2023-05-10T09:42:33;100848.03;;;14.48;100.00
54262;BME280;40174;52.364;6.452;2023-05-10T09:45:02;100850.53;;;14.50;100.00
54262;BME280;40174;52.364;6.452;2023-05-10T09:47:32;100847.72;;;14.51;100.00
54262;BME280;40174;52.364;6.452;2023-05-10T09:49:59;100847.88;;;14.60;100.00
54262;BME280;40174;52.364;6.452;2023-05-10T09:52:30;100859.50;;;14.49;100.00
54262;BME280;40174;52.364;6.452;2023-05-10T09:54:57;100868.31;;;14.49;100.00
54262;BME280;40174;52.364;6.452;2023-05-10T09:57:24;100871.53;;;14.53;100.00
54262;BME280;40174;52.364;6.452;2023-05-10T09:59:52;100870.59;;;14.44;100.00
54262;BME280;40174;52.364;6.452;2023-05-10T10:02:21;100870.88;;;14.41;100.00
54262;BME280;40174;52.364;6.452;2023-05-10T10:04:55;100879.69;;;14.42;100.00
54262;BME280;40174;52.364;6.452;2023-05-10T10:07:22;100877.19;;;14.40;100.00
54262;BME280;40174;52.364;6.452;2023-05-10T10:09:50;100878.84;;;14.41;100.00
54262;BME280;40174;52.364;6.452;2023-05-10T10:12:16;100881.25;;;14.34;100.00
54262;BME280;40174;52.364;6.452;2023-05-10T10:14:45;100882.56;;;14.30;100.00
54262;BME280;40174;52.364;6.452;2023-05-10T10:17:12;100881.00;;;14.28;100.00
54262;BME280;40174;52.364;6.452;2023-05-10T10:19:41;100887.19;;;14.19;100.00
54262;BME280;40174;52.364;6.452;2023-05-10T10:22:07;100884.44;;;14.10;100.00
54262;BME280;40174;52.364;6.452;2023-05-10T10:24:36;100886.22;;;14.20;100.00
54262;BME280;40174;52.364;6.452;2023-05-10T10:27:09;100887.44;;;14.25;100.00
54262;BME280;40174;52.364;6.452;2023-05-10T10:29:49;100884.25;;;14.22;100.00
54262;BME280;40174;52.364;6.452;2023-05-10T10:32:24;100889.31;;;14.15;100.00
54262;BME280;40174;52.364;6.452;2023-05-10T10:34:53;100889.56;;;14.22;100.00
54262;BME280;40174;52.364;6.452;2023-05-10T10:37:21;100894.91;;;14.12;100.00
54262;BME280;40174;52.364;6.452;2023-05-10T10:39:48;100887.19;;;14.19;100.00
54262;BME280;40174;52.364;6.452;2023-05-10T10:42:45;100900.34;;;14.20;100.00
54262;BME280;40174;52.364;6.452;2023-05-10T10:45:12;100894.34;;;14.18;100.00
54262;BME280;40174;52.364;6.452;2023-05-10T10:47:39;100892.94;;;14.24;100.00
54262;BME280;40174;52.364;6.452;2023-05-10T10:50:07;100894.16;;;14.29;100.00
54262;BME280;40174;52.364;6.452;2023-05-10T10:52:35;100890.22;;;14.33;100.00
54262;BME280;40174;52.364;6.452;2023-05-10T10:55:05;100893.59;;;14.26;100.00
54262;BME280;40174;52.364;6.452;2023-05-10T10:57:33;100901.56;;;14.26;100.00
54262;BME280;40174;52.364;6.452;2023-05-10T11:00:24;100898.50;;;14.21;100.00
54262;BME280;40174;52.364;6.452;2023-05-10T11:02:52;100903.13;;;14.19;100.00
54262;BME280;40174;52.364;6.452;2023-05-10T11:05:41;100900.66;;;14.17;100.00
54262;BME280;40174;52.364;6.452;2023-05-10T11:08:13;100901.16;;;14.21;100.00
54262;BME280;40174;52.364;6.452;2023-05-10T11:10:50;100908.44;;;14.28;100.00
54262;BME280;40174;52.364;6.452;2023-05-10T11:13:27;100910.41;;;14.26;100.00
54262;BME280;40174;52.364;6.452;2023-05-10T11:15:55;100913.63;;;14.20;100.00
54262;BME280;40174;52.364;6.452;2023-05-10T11:18:25;100913.59;;;14.30;100.00
54262;BME280;40174;52.364;6.452;2023-05-10T11:20:56;100915.72;;;14.26;100.00
54262;BME280;40174;52.364;6.452;2023-05-10T11:23:23;100913.03;;;14.36;100.00
54262;BME280;40174;52.364;6.452;2023-05-10T11:25:49;100917.31;;;14.47;100.00
54262;BME280;40174;52.364;6.452;2023-05-10T11:28:17;100916.94;;;14.42;100.00
54262;BME280;40174;52.364;6.452;2023-05-10T11:30:45;100918.03;;;14.39;100.00
54262;BME280;40174;52.364;6.452;2023-05-10T11:33:17;100915.75;;;14.54;100.00
54262;BME280;40174;52.364;6.452;2023-05-10T11:35:45;100915.75;;;14.54;100.00
54262;BME280;40174;52.364;6.452;2023-05-10T11:38:12;100920.06;;;14.65;100.00
54262;BME280;40174;52.364;6.452;2023-05-10T11:40:41;100919.25;;;14.64;100.00
54262;BME280;40174;52.364;6.452;2023-05-10T11:43:09;100922.97;;;14.71;100.00
54262;BME280;40174;52.364;6.452;2023-05-10T11:45:36;100921.28;;;14.70;100.00
54262;BME280;40174;52.364;6.452;2023-05-10T11:48:04;100925.97;;;14.86;100.00
54262;BME280;40174;52.364;6.452;2023-05-10T11:50:32;100931.84;;;14.90;100.00
54262;BME280;40174;52.364;6.452;2023-05-10T11:52:59;100925.94;;;14.96;100.00
54262;BME280;40174;52.364;6.452;2023-05-10T11:55:25;100919.91;;;14.94;100.00
54262;BME280;40174;52.364;6.452;2023-05-10T11:57:52;100936.25;;;14.99;100.00
54262;BME280;40174;52.364;6.452;2023-05-10T12:00:19;100938.47;;;15.04;100.00
54262;BME280;40174;52.364;6.452;2023-05-10T12:02:46;100930.50;;;15.04;100.00
54262;BME280;40174;52.364;6.452;2023-05-10T12:05:13;100943.56;;;14.97;100.00
54262;BME280;40174;52.364;6.452;2023-05-10T12:07:41;100944.38;;;14.97;100.00
54262;BME280;40174;52.364;6.452;2023-05-10T12:10:09;100940.88;;;14.97;100.00
54262;BME280;40174;52.364;6.452;2023-05-10T12:12:38;100937.16;;;14.90;100.00
54262;BME280;40174;52.364;6.452;2023-05-10T12:15:10;100940.41;;;14.84;100.00
54262;BME280;40174;52.364;6.452;2023-05-10T12:17:38;100936.97;;;14.73;100.00
54262;BME280;40174;52.364;6.452;2023-05-10T12:20:18;100947.69;;;14.82;100.00
54262;BME280;40174;52.364;6.452;2023-05-10T12:22:49;100947.88;;;14.80;100.00
54262;BME280;40174;52.364;6.452;2023-05-10T12:25:16;100949.53;;;14.81;100.00
54262;BME280;40174;52.364;6.452;2023-05-10T12:27:51;100952.88;;;14.83;100.00
54262;BME280;40174;52.364;6.452;2023-05-10T12:30:21;100956.22;;;14.85;100.00
54262;BME280;40174;52.364;6.452;2023-05-10T12:32:49;100965.28;;;14.92;100.00
54262;BME280;40174;52.364;6.452;2023-05-10T12:35:16;100961.81;;;14.92;100.00
54262;BME280;40174;52.364;6.452;2023-05-10T12:37:47;100961.03;;;15.00;100.00
54262;BME280;40174;52.364;6.452;2023-05-10T12:40:14;100962.44;;;15.04;100.00
54262;BME280;40174;52.364;6.452;2023-05-10T12:42:40;100960.75;;;15.03;100.00
54262;BME280;40174;52.364;6.452;2023-05-10T12:45:08;100960.06;;;15.01;100.00
54262;BME280;40174;52.364;6.452;2023-05-10T12:47:35;100966.78;;;15.05;100.00